Time;durP1;ratioP1;P1;durP2;ratioP2;P2;SDS_P1;SDS_P2;PMS_P1;PMS_P2;Temp;Humidity;BMP_temperature;BMP_pressure;BME280_temperature;BME280_humidity;BME280_pressure;Samples;Min_cycle;Max_cycle;Signal;HPM_P1;HPM_P2
2022/03/28 06:04:02;;;;;;;15.55;8.05;;;;;;;;;;10544482;28;20401;-79
2022/03/28 06:09:03;;;;;;;13.02;8.15;;;;;;;;;;10527966;28;20020;-81
2022/03/28 06:14:04;;;;;;;10.98;7.38;;;;;;;;;;10530497;28;20025;-82
2022/03/28 06:19:05;;;;;;;8.73;5.47;;;;;;;;;;10527056;28;20393;-82
2022/03/28 06:24:08;;;;;;;8.48;5.80;;;;;;;;;;10528403;28;20115;-82
2022/03/28 06:29:10;;;;;;;13.32;9.10;;;;;;;;;;10529108;28;20055;-82
2022/03/28 06:34:12;;;;;;;17.25;12.10;;;;;;;;;;10530826;28;20020;-82
2022/03/28 06:39:13;;;;;;;11.30;8.38;;;;;;;;;;10527314;28;20070;-79
2022/03/28 06:44:14;;;;;;;21.95;13.70;;;;;;;;;;10541374;28;20025;-79
2022/03/28 06:49:15;;;;;;;20.10;13.70;;;;;;;;;;10530712;28;20082;-79
2022/03/28 06:54:19;;;;;;;10.65;7.80;;;;;;;;;;10527362;28;20169;-79
2022/03/28 06:59:22;;;;;;;10.98;6.95;;;;;;;;;;10545054;28;20028;-79
2022/03/28 07:04:23;;;;;;;10.95;7.43;;;;;;;;;;10520522;28;20024;-74
2022/03/28 07:09:24;;;;;;;14.05;9.57;;;;;;;;;;10530759;28;20057;-75
2022/03/28 07:14:25;;;;;;;12.38;9.32;;;;;;;;;;10510887;28;20039;-77
2022/03/28 07:19:26;;;;;;;15.85;10.60;;;;;;;;;;10489684;28;20021;-77
2022/03/28 07:24:27;;;;;;;15.43;9.27;;;;;;;;;;10507386;28;20025;-77
2022/03/28 07:29:28;;;;;;;13.23;9.50;;;;;;;;;;10487876;28;20066;-77
2022/03/28 07:34:29;;;;;;;17.25;11.98;;;;;;;;;;10489000;28;20020;-79
2022/03/28 07:39:33;;;;;;;12.13;9.07;;;;;;;;;;10489193;28;20082;-78
2022/03/28 07:44:34;;;;;;;14.48;9.68;;;;;;;;;;10490350;28;20017;-78
2022/03/28 07:49:37;;;;;;;16.60;12.63;;;;;;;;;;10490333;28;20371;-78
2022/03/28 07:54:38;;;;;;;18.45;13.15;;;;;;;;;;10488667;28;20056;-79
2022/03/28 07:59:39;;;;;;;18.77;13.05;;;;;;;;;;10488602;28;20036;-77
2022/03/28 08:04:43;;;;;;;19.55;14.68;;;;;;;;;;10513962;28;20025;-77
2022/03/28 08:09:44;;;;;;;15.32;12.25;;;;;;;;;;10495268;28;20024;-78
2022/03/28 08:14:45;;;;;;;19.23;13.07;;;;;;;;;;10508916;28;20066;-81
2022/03/28 08:19:46;;;;;;;21.38;14.88;;;;;;;;;;10525470;28;20028;-81
2022/03/28 08:24:47;;;;;;;18.98;12.88;;;;;;;;;;10521089;28;20080;-81
2022/03/28 08:29:48;;;;;;;17.58;12.30;;;;;;;;;;10506040;28;20029;-81
2022/03/28 08:34:50;;;;;;;13.52;10.10;;;;;;;;;;10503882;28;20115;-81
2022/03/28 08:39:54;;;;;;;12.82;9.93;;;;;;;;;;10521165;28;20031;-81
2022/03/28 08:44:55;;;;;;;14.00;10.15;;;;;;;;;;10507694;28;20028;-81
2022/03/28 08:49:56;;;;;;;11.50;8.68;;;;;;;;;;10511979;28;20024;-80
2022/03/28 08:54:57;;;;;;;13.98;9.68;;;;;;;;;;10505595;28;20044;-81
2022/03/28 08:59:58;;;;;;;13.70;10.35;;;;;;;;;;10510873;28;20036;-80
2022/03/28 09:05:00;;;;;;;14.75;9.82;;;;;;;;;;10524151;28;20437;-81
2022/03/28 09:10:02;;;;;;;15.23;10.63;;;;;;;;;;10519993;28;20021;-81
2022/03/28 09:15:08;;;;;;;10.80;8.73;;;;;;;;;;10504024;28;20021;-81
2022/03/28 09:20:09;;;;;;;15.70;11.27;;;;;;;;;;10521863;28;20463;-81
2022/03/28 09:25:14;;;;;;;12.20;9.77;;;;;;;;;;10522350;28;20044;-81
2022/03/28 09:30:19;;;;;;;16.95;13.73;;;;;;;;;;10520725;28;20025;-81
2022/03/28 09:35:24;;;;;;;22.05;15.88;;;;;;;;;;10518303;28;20016;-81
2022/03/28 09:40:26;;;;;;;16.88;12.43;;;;;;;;;;10529044;28;20020;-81
2022/03/28 09:45:33;;;;;;;24.70;17.85;;;;;;;;;;10538854;28;20080;-80
2022/03/28 09:50:47;;;;;;;16.33;11.77;;;;;;;;;;10514367;28;20132;-81
2022/03/28 09:55:53;;;;;;;13.30;10.75;;;;;;;;;;10503922;28;20497;-81
2022/03/28 10:00:54;;;;;;;16.60;12.68;;;;;;;;;;10520229;28;20062;-82
2022/03/28 10:05:55;;;;;;;23.30;17.35;;;;;;;;;;10492603;28;20050;-78
2022/03/28 10:10:59;;;;;;;17.08;12.80;;;;;;;;;;10492754;28;20061;-79
2022/03/28 10:16:02;;;;;;;20.38;15.55;;;;;;;;;;10486895;28;20021;-79
2022/03/28 10:21:15;;;;;;;18.48;14.88;;;;;;;;;;10486187;28;20028;-78
2022/03/28 10:26:17;;;;;;;20.95;14.15;;;;;;;;;;10486280;28;20039;-79
2022/03/28 10:31:18;;;;;;;13.23;10.50;;;;;;;;;;10511170;28;20024;-83
2022/03/28 10:36:21;;;;;;;24.23;17.20;;;;;;;;;;10498423;28;20036;-83
2022/03/28 10:41:22;;;;;;;16.60;13.02;;;;;;;;;;10508565;28;20025;-82
2022/03/28 10:46:23;;;;;;;17.80;12.98;;;;;;;;;;10507485;28;20032;-81
2022/03/28 10:51:29;;;;;;;13.77;10.52;;;;;;;;;;10519443;28;20016;-80
2022/03/28 10:56:34;;;;;;;17.55;13.55;;;;;;;;;;10521541;28;20032;-81
2022/03/28 11:01:36;;;;;;;24.15;16.55;;;;;;;;;;10511596;28;20621;-81
2022/03/28 11:06:50;;;;;;;13.63;10.27;;;;;;;;;;10538895;28;20462;-81
2022/03/28 11:11:57;;;;;;;12.70;9.90;;;;;;;;;;10527112;28;20084;-82
2022/03/28 11:16:58;;;;;;;19.30;13.63;;;;;;;;;;10511767;28;20029;-82
2022/03/28 11:22:06;;;;;;;24.65;17.00;;;;;;;;;;10505847;28;20052;-82
2022/03/28 11:27:08;;;;;;;21.05;15.63;;;;;;;;;;10523932;28;20020;-82
2022/03/28 11:32:11;;;;;;;14.52;10.45;;;;;;;;;;10506101;28;20043;-81
2022/03/28 11:37:14;;;;;;;20.33;14.73;;;;;;;;;;10502086;28;20059;-82
2022/03/28 11:42:19;;;;;;;18.05;13.88;;;;;;;;;;10511771;28;20479;-82
2022/03/28 11:47:20;;;;;;;16.05;12.38;;;;;;;;;;10504520;28;20485;-82
2022/03/28 11:52:22;;;;;;;14.98;11.95;;;;;;;;;;10504626;28;20039;-82
2022/03/28 12:02:51;;;;;;;21.65;15.98;;;;;;;;;;10529125;28;20048;-82
2022/03/28 12:07:52;;;;;;;15.57;10.63;;;;;;;;;;10525992;28;20081;-84
2022/03/28 12:12:54;;;;;;;12.85;7.95;;;;;;;;;;10511680;28;20478;-83
2022/03/28 12:18:00;;;;;;;19.92;13.88;;;;;;;;;;10521169;28;20043;-84
2022/03/28 12:23:03;;;;;;;10.70;8.20;;;;;;;;;;10501836;28;20028;-84
2022/03/28 12:28:06;;;;;;;11.00;8.73;;;;;;;;;;10502216;28;20028;-84
2022/03/28 12:33:08;;;;;;;14.45;9.52;;;;;;;;;;10506596;28;20017;-83
2022/03/28 12:38:13;;;;;;;15.05;9.77;;;;;;;;;;10525747;28;20032;-80
2022/03/28 12:43:16;;;;;;;11.70;8.35;;;;;;;;;;10511620;28;20028;-79
2022/03/28 12:48:17;;;;;;;13.38;9.05;;;;;;;;;;10515138;28;20020;-81
2022/03/28 12:53:18;;;;;;;13.38;8.95;;;;;;;;;;10505790;28;20035;-80
2022/03/28 12:58:19;;;;;;;15.95;11.80;;;;;;;;;;10510258;28;20035;-80
2022/03/28 13:03:32;;;;;;;15.13;9.82;;;;;;;;;;10509490;28;20044;-81
2022/03/28 13:08:34;;;;;;;12.98;8.43;;;;;;;;;;10507616;28;20088;-80
2022/03/28 13:13:35;;;;;;;15.90;10.80;;;;;;;;;;10505136;28;20028;-81
2022/03/28 13:18:37;;;;;;;13.00;9.52;;;;;;;;;;10500218;28;20071;-87
2022/03/28 13:23:47;;;;;;;14.80;10.18;;;;;;;;;;10511626;28;20032;-86
2022/03/28 13:29:09;;;;;;;14.45;11.07;;;;;;;;;;10534516;28;20013;-85
2022/03/28 13:34:11;;;;;;;14.90;9.68;;;;;;;;;;10529738;28;20040;-86
2022/03/28 13:39:13;;;;;;;13.05;8.98;;;;;;;;;;10530083;28;20017;-85
2022/03/28 13:44:17;;;;;;;13.15;8.43;;;;;;;;;;10527024;28;20080;-85
2022/03/28 13:49:18;;;;;;;16.55;11.85;;;;;;;;;;10509559;28;20052;-85
2022/03/28 13:54:19;;;;;;;11.73;8.75;;;;;;;;;;10513393;28;20094;-84
2022/03/28 13:59:20;;;;;;;17.90;10.93;;;;;;;;;;10508052;28;20028;-85
2022/03/28 14:04:22;;;;;;;16.63;11.93;;;;;;;;;;10497816;28;20024;-84
2022/03/28 14:09:24;;;;;;;13.18;8.40;;;;;;;;;;10452566;28;20088;-84
2022/03/28 14:14:25;;;;;;;19.83;15.05;;;;;;;;;;10457501;28;20017;-83
2022/03/28 14:19:26;;;;;;;14.57;8.60;;;;;;;;;;10451684;28;20056;-83
2022/03/28 14:24:27;;;;;;;13.20;9.80;;;;;;;;;;10475843;28;20029;-85
2022/03/28 14:29:28;;;;;;;16.52;11.88;;;;;;;;;;10461490;28;20024;-83
2022/03/28 14:34:29;;;;;;;16.23;12.35;;;;;;;;;;10465878;28;20040;-84
2022/03/28 14:39:30;;;;;;;17.17;12.73;;;;;;;;;;10478386;28;20048;-84
2022/03/28 14:44:31;;;;;;;19.00;14.35;;;;;;;;;;10468995;28;20049;-86
2022/03/28 14:49:33;;;;;;;20.02;14.25;;;;;;;;;;10457189;28;20025;-86
2022/03/28 14:54:35;;;;;;;12.18;8.20;;;;;;;;;;10457692;28;20041;-86
2022/03/28 14:59:36;;;;;;;14.20;10.23;;;;;;;;;;10476111;28;20032;-85
2022/03/28 15:04:37;;;;;;;11.00;7.95;;;;;;;;;;10467369;28;20032;-81
2022/03/28 15:09:39;;;;;;;12.75;9.75;;;;;;;;;;10467928;28;20052;-85
2022/03/28 15:14:40;;;;;;;11.30;7.80;;;;;;;;;;10462951;28;20124;-85
2022/03/28 15:19:42;;;;;;;14.55;10.45;;;;;;;;;;10466607;28;20025;-85
2022/03/28 15:24:43;;;;;;;20.13;14.55;;;;;;;;;;10468353;28;20021;-85
2022/03/28 15:29:45;;;;;;;10.65;7.53;;;;;;;;;;10481062;28;20078;-81
2022/03/28 15:34:46;;;;;;;13.77;10.27;;;;;;;;;;10480589;28;20029;-83
2022/03/28 15:39:47;;;;;;;15.75;11.57;;;;;;;;;;10472259;28;20029;-85
2022/03/28 15:44:50;;;;;;;8.98;7.45;;;;;;;;;;10467302;28;20029;-87
2022/03/28 15:49:56;;;;;;;11.32;8.38;;;;;;;;;;10459962;28;20028;-86
2022/03/28 15:55:07;;;;;;;11.05;7.15;;;;;;;;;;10481393;28;20021;-85
2022/03/28 16:00:09;;;;;;;11.25;7.43;;;;;;;;;;10462772;28;20045;-84
2022/03/28 16:05:10;;;;;;;11.30;7.95;;;;;;;;;;10465858;28;20033;-85
2022/03/28 16:10:12;;;;;;;12.20;8.00;;;;;;;;;;10458364;28;20115;-84
2022/03/28 16:15:13;;;;;;;18.35;13.13;;;;;;;;;;10461198;28;20041;-84
2022/03/28 16:20:14;;;;;;;10.95;7.60;;;;;;;;;;10462573;28;20032;-81
2022/03/28 16:25:19;;;;;;;18.25;12.02;;;;;;;;;;10468202;28;20477;-84
2022/03/28 16:30:22;;;;;;;19.20;14.25;;;;;;;;;;10485427;28;20112;-84
2022/03/28 16:35:39;;;;;;;13.55;10.40;;;;;;;;;;10476873;28;20029;-84
2022/03/28 16:40:41;;;;;;;11.57;8.73;;;;;;;;;;10456956;28;20025;-84
2022/03/28 16:46:01;;;;;;;15.38;11.60;;;;;;;;;;10472459;28;20025;-83
2022/03/28 16:51:01;;;;;;;20.58;13.52;;;;;;;;;;10466884;28;20080;-83
2022/03/28 16:56:03;;;;;;;8.70;7.07;;;;;;;;;;10488740;28;20001;-85
2022/03/28 17:01:11;;;;;;;15.18;10.75;;;;;;;;;;10468604;28;20063;-84
2022/03/28 17:06:16;;;;;;;10.68;7.20;;;;;;;;;;10469851;28;20024;-83
2022/03/28 17:11:26;;;;;;;20.65;14.32;;;;;;;;;;10467206;28;20093;-82
2022/03/28 17:16:31;;;;;;;15.38;10.90;;;;;;;;;;10472299;28;20025;-83
2022/03/28 17:21:38;;;;;;;11.10;8.05;;;;;;;;;;10470483;28;20013;-83
2022/03/28 17:26:43;;;;;;;8.50;6.05;;;;;;;;;;10468732;28;20021;-83
2022/03/28 17:31:48;;;;;;;7.68;5.97;;;;;;;;;;10484625;28;20024;-83
2022/03/28 17:36:49;;;;;;;7.65;6.38;;;;;;;;;;10468974;28;20460;-83
2022/03/28 17:41:53;;;;;;;8.23;5.72;;;;;;;;;;10467581;28;20075;-83
2022/03/28 17:46:59;;;;;;;12.90;10.23;;;;;;;;;;10483106;28;20037;-84
2022/03/28 17:52:06;;;;;;;8.35;6.45;;;;;;;;;;10456845;28;20072;-83
2022/03/28 17:57:08;;;;;;;9.43;6.57;;;;;;;;;;10449156;28;20052;-83
2022/03/28 18:02:17;;;;;;;8.55;6.35;;;;;;;;;;10452228;28;20151;-83
2022/03/28 18:07:20;;;;;;;8.27;5.40;;;;;;;;;;10470778;28;20139;-84
2022/03/28 18:12:27;;;;;;;7.45;4.45;;;;;;;;;;10467595;28;20077;-84
2022/03/28 18:17:28;;;;;;;6.63;4.70;;;;;;;;;;10447033;28;20050;-84
2022/03/28 18:22:31;;;;;;;7.07;4.57;;;;;;;;;;10471239;28;20059;-85
2022/03/28 18:27:43;;;;;;;6.53;4.70;;;;;;;;;;10496712;28;20033;-84
2022/03/28 18:32:45;;;;;;;6.68;4.88;;;;;;;;;;10477139;28;20096;-84
2022/03/28 18:37:46;;;;;;;7.63;5.30;;;;;;;;;;10449894;28;20036;-84
2022/03/28 18:42:47;;;;;;;6.63;5.20;;;;;;;;;;10447255;28;20017;-84
2022/03/28 18:47:48;;;;;;;5.15;3.80;;;;;;;;;;10444843;28;20495;-84
2022/03/28 18:52:49;;;;;;;7.22;4.75;;;;;;;;;;10446613;28;20036;-85
2022/03/28 18:57:50;;;;;;;7.30;5.05;;;;;;;;;;10447357;28;20068;-85
2022/03/28 19:02:51;;;;;;;10.30;5.40;;;;;;;;;;10446589;28;20036;-85
2022/03/28 19:07:52;;;;;;;9.40;5.95;;;;;;;;;;10445905;28;20115;-85
2022/03/28 19:12:53;;;;;;;6.13;4.82;;;;;;;;;;10470193;28;20219;-84
2022/03/28 19:17:54;;;;;;;6.15;4.30;;;;;;;;;;10450952;28;20178;-84
2022/03/28 19:23:00;;;;;;;7.22;4.68;;;;;;;;;;10449991;28;20513;-82
2022/03/28 19:28:02;;;;;;;7.65;4.85;;;;;;;;;;10451288;28;20013;-84
